Time;durP1;ratioP1;P1;durP2;ratioP2;P2;SDS_P1;SDS_P2;PMS_P1;PMS_P2;Temp;Humidity;BMP_temperature;BMP_pressure;BME280_temperature;BME280_humidity;BME280_pressure;Samples;Min_cycle;Max_cycle;Signal;HPM_P1;HPM_P2
2023/08/28 00:03:37;;;;;;;7.72;3.30;;;;;;;;;;12820118;23;20283;-69
2023/08/28 00:08:38;;;;;;;5.28;3.28;;;;;;;;;;12819924;23;20215;-69
2023/08/28 00:13:38;;;;;;;6.67;3.47;;;;;;;;;;12818913;23;20048;-69
2023/08/28 00:18:38;;;;;;;6.72;2.75;;;;;;;;;;12819817;23;19984;-68
2023/08/28 00:23:38;;;;;;;6.47;3.65;;;;;;;;;;12819694;23;20161;-69
2023/08/28 00:28:39;;;;;;;5.82;3.63;;;;;;;;;;12817132;23;20020;-68
2023/08/28 00:33:39;;;;;;;6.47;3.13;;;;;;;;;;12818956;23;20204;-69
2023/08/28 00:38:39;;;;;;;5.30;3.15;;;;;;;;;;12819461;23;19981;-69
2023/08/28 00:43:39;;;;;;;10.60;3.72;;;;;;;;;;12805309;23;20191;-69
2023/08/28 00:48:40;;;;;;;5.82;3.45;;;;;;;;;;12818958;23;19997;-69
2023/08/28 00:53:40;;;;;;;4.57;3.27;;;;;;;;;;12817105;23;19993;-70
2023/08/28 00:58:44;;;;;;;7.63;3.45;;;;;;;;;;12818615;23;20075;-69
2023/08/28 01:04:11;;;;;;;6.67;3.30;;;;;;;;;;12816355;23;20287;-69
2023/08/28 01:09:47;;;;;;;5.13;3.33;;;;;;;;;;12784423;23;20055;-69
2023/08/28 02:58:56;;;;;;;4.20;3.30;;;;;;;;;;12884389;22;20299;-70
2023/08/28 03:03:56;;;;;;;7.22;4.50;;;;;;;;;;12873465;23;20087;-70
2023/08/28 03:08:56;;;;;;;8.23;3.90;;;;;;;;;;12879110;23;20164;-70
2023/08/28 03:13:57;;;;;;;8.25;3.78;;;;;;;;;;12880195;23;19996;-70
2023/08/28 03:18:57;;;;;;;6.38;4.03;;;;;;;;;;12832838;23;20048;-70
2023/08/28 03:23:57;;;;;;;13.97;7.43;;;;;;;;;;12831523;23;20209;-70
2023/08/28 03:28:58;;;;;;;7.05;4.22;;;;;;;;;;12878620;23;20526;-70
2023/08/28 03:34:00;;;;;;;11.90;5.32;;;;;;;;;;12879922;23;19989;-70
2023/08/28 03:39:00;;;;;;;11.70;5.32;;;;;;;;;;12882271;23;19989;-71
2023/08/28 03:44:00;;;;;;;7.70;4.55;;;;;;;;;;12882475;23;20019;-70
2023/08/28 03:49:00;;;;;;;8.77;5.10;;;;;;;;;;12882112;23;19989;-71
2023/08/28 03:54:02;;;;;;;13.23;5.13;;;;;;;;;;12881990;23;20325;-70
2023/08/28 03:59:02;;;;;;;9.27;5.43;;;;;;;;;;12878413;23;20009;-70
2023/08/28 04:04:02;;;;;;;18.10;6.53;;;;;;;;;;12882273;23;20004;-70
2023/08/28 04:09:02;;;;;;;9.97;5.77;;;;;;;;;;12881609;23;19985;-70
2023/08/28 04:14:03;;;;;;;9.82;5.88;;;;;;;;;;12834744;23;20000;-69
2023/08/28 04:19:03;;;;;;;10.45;5.30;;;;;;;;;;12881546;23;20287;-69
2023/08/28 04:24:04;;;;;;;11.77;5.93;;;;;;;;;;12833688;23;20082;-69
2023/08/28 04:29:04;;;;;;;9.95;5.93;;;;;;;;;;12879504;23;20390;-68
2023/08/28 04:34:05;;;;;;;13.30;6.10;;;;;;;;;;12880953;23;20278;-69
2023/08/28 04:39:05;;;;;;;9.95;5.70;;;;;;;;;;12877069;23;20291;-68
2023/08/28 04:44:05;;;;;;;11.25;5.53;;;;;;;;;;12865323;23;19988;-79
2023/08/28 04:49:06;;;;;;;10.83;5.40;;;;;;;;;;12860529;23;20245;-67
2023/08/28 04:54:06;;;;;;;9.83;5.30;;;;;;;;;;12863095;23;20000;-67
2023/08/28 04:59:06;;;;;;;8.38;5.07;;;;;;;;;;12856946;23;20230;-67
2023/08/28 05:04:07;;;;;;;13.10;5.13;;;;;;;;;;12860970;23;20267;-67
2023/08/28 05:09:07;;;;;;;8.20;5.05;;;;;;;;;;12860225;23;20198;-67
2023/08/28 05:14:07;;;;;;;9.38;4.38;;;;;;;;;;12855392;23;20071;-66
2023/08/28 05:19:07;;;;;;;10.07;4.78;;;;;;;;;;12855217;23;20484;-67
2023/08/28 05:24:08;;;;;;;8.55;4.60;;;;;;;;;;12859452;23;20408;-67
2023/08/28 05:29:08;;;;;;;11.52;5.10;;;;;;;;;;12859359;23;20011;-66
2023/08/28 05:34:08;;;;;;;9.13;4.97;;;;;;;;;;12861790;23;20015;-67
2023/08/28 05:39:09;;;;;;;7.82;4.93;;;;;;;;;;12862108;23;19989;-68
2023/08/28 05:44:09;;;;;;;8.57;5.47;;;;;;;;;;12860694;23;20068;-65
2023/08/28 05:49:09;;;;;;;7.65;5.00;;;;;;;;;;12857931;23;20284;-66
2023/08/28 05:54:09;;;;;;;11.63;4.70;;;;;;;;;;12858776;23;20020;-67
2023/08/28 05:59:10;;;;;;;8.98;4.47;;;;;;;;;;12854897;23;20151;-65
2023/08/28 06:04:10;;;;;;;9.90;4.55;;;;;;;;;;12860474;23;20208;-65
2023/08/28 06:09:10;;;;;;;8.05;4.30;;;;;;;;;;12858569;23;20011;-65
2023/08/28 06:14:11;;;;;;;7.93;4.37;;;;;;;;;;12858355;23;19989;-66
2023/08/28 06:19:11;;;;;;;5.55;4.07;;;;;;;;;;12860355;23;20001;-66
2023/08/28 06:24:12;;;;;;;8.55;4.15;;;;;;;;;;12865684;23;20548;-65
2023/08/28 06:29:12;;;;;;;6.82;4.35;;;;;;;;;;12852022;23;20028;-65
2023/08/28 06:34:14;;;;;;;8.77;4.00;;;;;;;;;;12862088;23;20005;-65
2023/08/28 06:39:15;;;;;;;10.27;4.63;;;;;;;;;;12865927;23;20019;-65
2023/08/28 06:44:15;;;;;;;9.13;3.63;;;;;;;;;;12864748;23;20007;-66
2023/08/28 06:49:15;;;;;;;7.22;3.47;;;;;;;;;;12845027;23;20015;-66
2023/08/28 06:54:15;;;;;;;7.40;3.63;;;;;;;;;;12865471;23;20052;-66
2023/08/28 06:59:16;;;;;;;12.98;4.25;;;;;;;;;;12860885;23;20051;-66
2023/08/28 07:04:16;;;;;;;9.80;4.00;;;;;;;;;;12818301;23;20032;-66
2023/08/28 07:09:16;;;;;;;11.80;3.88;;;;;;;;;;12865007;23;20299;-66
2023/08/28 07:14:16;;;;;;;7.80;4.03;;;;;;;;;;12851463;23;20502;-66
2023/08/28 07:19:17;;;;;;;6.35;4.22;;;;;;;;;;12864588;23;20000;-66
2023/08/28 07:24:17;;;;;;;8.25;3.75;;;;;;;;;;12864931;23;19997;-66
2023/08/28 07:29:17;;;;;;;11.97;3.27;;;;;;;;;;12861174;23;20176;-66
2023/08/28 07:34:17;;;;;;;7.20;3.88;;;;;;;;;;12867939;23;19997;-66
2023/08/28 07:39:18;;;;;;;8.98;3.65;;;;;;;;;;12871711;23;20019;-66
2023/08/28 07:44:18;;;;;;;14.52;3.67;;;;;;;;;;12871186;23;20028;-66
2023/08/28 07:49:18;;;;;;;9.27;3.17;;;;;;;;;;12871650;23;20006;-66
2023/08/28 07:54:18;;;;;;;5.65;3.20;;;;;;;;;;12870465;23;20032;-67
2023/08/28 07:59:19;;;;;;;6.53;3.60;;;;;;;;;;12866289;23;20071;-66
2023/08/28 08:04:19;;;;;;;4.88;2.90;;;;;;;;;;12870288;23;20195;-66
2023/08/28 08:09:19;;;;;;;9.63;3.78;;;;;;;;;;12870357;23;20058;-66
2023/08/28 08:14:19;;;;;;;9.45;3.35;;;;;;;;;;12870287;23;20016;-66
2023/08/28 08:19:20;;;;;;;9.32;4.60;;;;;;;;;;12869957;23;20354;-66
2023/08/28 08:24:20;;;;;;;5.38;2.55;;;;;;;;;;12869688;23;20001;-66
2023/08/28 08:29:20;;;;;;;7.38;2.75;;;;;;;;;;12870113;23;19996;-66
2023/08/28 08:34:20;;;;;;;9.63;3.80;;;;;;;;;;12870200;23;20033;-66
2023/08/28 08:39:21;;;;;;;5.05;2.80;;;;;;;;;;12870698;23;20318;-66
2023/08/28 08:44:21;;;;;;;9.85;2.95;;;;;;;;;;12869479;23;20059;-66
2023/08/28 08:49:25;;;;;;;7.13;3.42;;;;;;;;;;12869872;23;20004;-66
2023/08/28 08:54:30;;;;;;;15.57;11.00;;;;;;;;;;12869298;23;19993;-66
2023/08/28 08:59:32;;;;;;;8.55;3.50;;;;;;;;;;12848788;23;20196;-66
2023/08/28 09:04:33;;;;;;;13.02;4.07;;;;;;;;;;12871049;23;20234;-66
2023/08/28 09:09:33;;;;;;;6.75;3.10;;;;;;;;;;12869251;23;20063;-67
2023/08/28 09:14:34;;;;;;;9.33;3.17;;;;;;;;;;12870134;23;20020;-66
2023/08/28 09:19:35;;;;;;;7.32;2.75;;;;;;;;;;12863144;23;20100;-65
2023/08/28 09:24:38;;;;;;;5.53;3.08;;;;;;;;;;12868274;23;20039;-66
2023/08/28 09:29:39;;;;;;;6.47;2.67;;;;;;;;;;12868801;23;20020;-65
2023/08/28 09:34:40;;;;;;;10.35;2.78;;;;;;;;;;12868283;23;20295;-65
2023/08/28 09:39:41;;;;;;;8.25;2.92;;;;;;;;;;12868600;23;19996;-66
2023/08/28 09:44:48;;;;;;;12.30;3.58;;;;;;;;;;12863370;23;20012;-66
2023/08/28 09:49:51;;;;;;;10.75;2.40;;;;;;;;;;12868727;23;20036;-66
2023/08/28 09:55:05;;;;;;;5.82;2.40;;;;;;;;;;12867562;23;20015;-66
2023/08/28 10:00:06;;;;;;;9.43;2.08;;;;;;;;;;12859972;23;20022;-66
2023/08/28 10:05:08;;;;;;;7.07;2.38;;;;;;;;;;12867707;23;20001;-66
2023/08/28 10:10:11;;;;;;;5.90;1.85;;;;;;;;;;12867981;23;20060;-66
2023/08/28 10:15:13;;;;;;;5.05;1.55;;;;;;;;;;12867254;23;20227;-66
2023/08/28 10:20:13;;;;;;;5.18;1.83;;;;;;;;;;12846927;23;20012;-66
2023/08/28 10:25:16;;;;;;;4.50;1.52;;;;;;;;;;12867818;23;20008;-66
2023/08/28 10:30:16;;;;;;;4.68;2.35;;;;;;;;;;12867685;23;20009;-67
2023/08/28 10:35:17;;;;;;;7.40;4.33;;;;;;;;;;12867961;23;20299;-66
2023/08/28 10:40:18;;;;;;;7.20;2.10;;;;;;;;;;12867762;23;20157;-69
2023/08/28 10:45:19;;;;;;;7.50;1.88;;;;;;;;;;12867567;23;19985;-68
2023/08/28 10:50:19;;;;;;;2.67;1.67;;;;;;;;;;12866435;23;20291;-68
2023/08/28 10:55:19;;;;;;;7.47;1.60;;;;;;;;;;12866497;23;19992;-69
2023/08/28 11:00:21;;;;;;;4.82;1.42;;;;;;;;;;12857601;23;20013;-69
2023/08/28 11:05:21;;;;;;;5.68;1.70;;;;;;;;;;12866860;23;20039;-70
2023/08/28 11:10:23;;;;;;;12.27;2.25;;;;;;;;;;12869338;23;20082;-69
2023/08/28 11:15:24;;;;;;;3.80;1.80;;;;;;;;;;12860706;23;20334;-69
2023/08/28 11:20:25;;;;;;;6.50;2.10;;;;;;;;;;12870420;23;20080;-69
2023/08/28 11:25:35;;;;;;;5.13;2.08;;;;;;;;;;12843870;23;19997;-68
2023/08/28 11:30:36;;;;;;;5.70;1.90;;;;;;;;;;12870553;23;20347;-68
2023/08/28 11:35:37;;;;;;;6.50;2.75;;;;;;;;;;12870756;23;20202;-68
2023/08/28 11:40:37;;;;;;;3.88;2.10;;;;;;;;;;12869643;23;20079;-68
2023/08/28 11:45:37;;;;;;;2.80;1.73;;;;;;;;;;12869217;23;19988;-68
2023/08/28 11:50:38;;;;;;;5.10;2.00;;;;;;;;;;12869583;23;20176;-68
2023/08/28 11:55:38;;;;;;;2.38;1.50;;;;;;;;;;12870127;23;19996;-68
2023/08/28 12:00:41;;;;;;;4.28;1.50;;;;;;;;;;12858871;23;20326;-69
2023/08/28 12:05:41;;;;;;;2.85;1.27;;;;;;;;;;12869616;23;20191;-69
2023/08/28 12:10:43;;;;;;;5.38;1.63;;;;;;;;;;12870640;23;20012;-70
2023/08/28 12:15:43;;;;;;;4.28;1.27;;;;;;;;;;12868468;23;20295;-68
2023/08/28 12:20:43;;;;;;;1.60;1.10;;;;;;;;;;12821915;23;20071;-68
2023/08/28 12:25:44;;;;;;;3.40;1.30;;;;;;;;;;12869573;23;20008;-68
2023/08/28 12:30:51;;;;;;;3.90;1.60;;;;;;;;;;12868363;23;20095;-68
2023/08/28 12:35:52;;;;;;;4.25;1.55;;;;;;;;;;12868443;23;19996;-68
2023/08/28 12:40:52;;;;;;;2.58;1.15;;;;;;;;;;12868784;23;20005;-68
2023/08/28 12:45:52;;;;;;;5.20;1.85;;;;;;;;;;12868307;23;19997;-68
2023/08/28 12:50:53;;;;;;;11.75;2.08;;;;;;;;;;12869059;23;20004;-70
2023/08/28 12:55:53;;;;;;;3.08;1.40;;;;;;;;;;12821412;23;20612;-70
2023/08/28 13:00:53;;;;;;;3.25;1.27;;;;;;;;;;12857367;23;20350;-70
2023/08/28 13:05:54;;;;;;;2.83;1.35;;;;;;;;;;12868182;23;20000;-68
2023/08/28 13:10:54;;;;;;;2.85;1.50;;;;;;;;;;12868215;23;20001;-67
2023/08/28 13:15:55;;;;;;;6.50;1.30;;;;;;;;;;12867733;23;20000;-70
2023/08/28 13:20:55;;;;;;;3.85;1.20;;;;;;;;;;12869196;23;20199;-70
2023/08/28 13:25:55;;;;;;;3.65;1.67;;;;;;;;;;12868034;23;20294;-71
2023/08/28 13:30:55;;;;;;;3.95;1.65;;;;;;;;;;12867125;23;20016;-69
2023/08/28 13:35:56;;;;;;;5.25;1.38;;;;;;;;;;12867328;23;20199;-69
2023/08/28 13:40:58;;;;;;;1.67;1.30;;;;;;;;;;12867613;23;20302;-69
2023/08/28 13:45:58;;;;;;;4.88;1.13;;;;;;;;;;12867550;23;20047;-68
2023/08/28 13:50:58;;;;;;;1.97;1.40;;;;;;;;;;12868316;23;20188;-68
2023/08/28 13:55:58;;;;;;;4.53;1.53;;;;;;;;;;12867263;23;20087;-68
2023/08/28 14:00:59;;;;;;;4.05;1.35;;;;;;;;;;12855269;23;20140;-67
2023/08/28 14:06:03;;;;;;;3.00;1.35;;;;;;;;;;12869606;23;20024;-69
2023/08/28 14:11:06;;;;;;;5.22;1.33;;;;;;;;;;12866371;23;19999;-67
2023/08/28 14:16:07;;;;;;;3.75;1.25;;;;;;;;;;12866937;23;19993;-66
2023/08/28 14:21:07;;;;;;;3.00;1.30;;;;;;;;;;12867191;23;20000;-69
2023/08/28 14:26:08;;;;;;;4.38;1.83;;;;;;;;;;12866325;23;20201;-68
2023/08/28 14:31:09;;;;;;;2.55;1.17;;;;;;;;;;12866251;23;20005;-66
2023/08/28 14:36:09;;;;;;;2.15;0.95;;;;;;;;;;12866772;23;19993;-68
2023/08/28 14:41:09;;;;;;;1.57;1.20;;;;;;;;;;12866296;23;20074;-68
2023/08/28 14:46:10;;;;;;;3.13;1.10;;;;;;;;;;12870544;23;20012;-67
2023/08/28 14:51:10;;;;;;;2.13;1.10;;;;;;;;;;12870621;23;20003;-68
2023/08/28 14:56:10;;;;;;;5.60;1.20;;;;;;;;;;12870128;23;20001;-67
2023/08/28 15:01:11;;;;;;;5.78;1.15;;;;;;;;;;12858253;23;20017;-67
2023/08/28 15:06:11;;;;;;;5.67;1.00;;;;;;;;;;12824289;23;19997;-68
2023/08/28 15:11:11;;;;;;;3.00;1.20;;;;;;;;;;12870061;23;20187;-67
2023/08/28 15:16:11;;;;;;;5.40;1.27;;;;;;;;;;12869841;23;20111;-67
2023/08/28 15:21:12;;;;;;;2.13;1.35;;;;;;;;;;12860115;23;20191;-67
2023/08/28 15:26:13;;;;;;;6.57;1.33;;;;;;;;;;12870924;23;19997;-67
2023/08/28 15:31:13;;;;;;;3.78;1.33;;;;;;;;;;12856886;23;20009;-68
2023/08/28 15:36:13;;;;;;;2.08;1.10;;;;;;;;;;12869191;23;20000;-67
2023/08/28 15:41:14;;;;;;;2.80;1.25;;;;;;;;;;12864170;23;20016;-66
2023/08/28 15:46:14;;;;;;;4.65;1.52;;;;;;;;;;12867086;23;20463;-66
2023/08/28 15:51:15;;;;;;;3.15;1.65;;;;;;;;;;12845271;23;20028;-66
2023/08/28 15:56:16;;;;;;;2.85;1.50;;;;;;;;;;12869561;23;20316;-66
2023/08/28 16:01:16;;;;;;;4.30;1.70;;;;;;;;;;12857556;23;20367;-66
2023/08/28 16:06:16;;;;;;;4.15;1.60;;;;;;;;;;12869878;23;20009;-66
2023/08/28 16:11:16;;;;;;;2.40;1.65;;;;;;;;;;12869509;23;20290;-66
2023/08/28 16:16:17;;;;;;;3.13;1.50;;;;;;;;;;12870137;23;20000;-66
2023/08/28 16:21:17;;;;;;;2.95;1.73;;;;;;;;;;12869190;23;20218;-66
2023/08/28 16:26:17;;;;;;;5.18;1.73;;;;;;;;;;12866746;23;20015;-66
2023/08/28 16:31:18;;;;;;;3.67;1.40;;;;;;;;;;12870004;23;20050;-66
2023/08/28 16:36:18;;;;;;;5.25;1.33;;;;;;;;;;12869176;23;20163;-66
2023/08/28 16:41:18;;;;;;;4.57;1.50;;;;;;;;;;12869184;23;20008;-66
2023/08/28 16:46:18;;;;;;;2.63;1.63;;;;;;;;;;12869271;23;20214;-66
2023/08/28 16:51:19;;;;;;;7.50;1.73;;;;;;;;;;12870663;23;20219;-66
2023/08/28 16:56:19;;;;;;;6.57;2.20;;;;;;;;;;12855480;23;20008;-66
2023/08/28 17:01:21;;;;;;;7.33;1.83;;;;;;;;;;12855754;23;20020;-67
2023/08/28 17:06:22;;;;;;;4.50;1.50;;;;;;;;;;12865811;23;20059;-65
2023/08/28 17:11:23;;;;;;;3.90;2.05;;;;;;;;;;12868960;23;20082;-65
2023/08/28 17:16:23;;;;;;;5.88;1.65;;;;;;;;;;12869066;23;20016;-67
2023/08/28 17:21:23;;;;;;;2.90;1.60;;;;;;;;;;12869332;23;20226;-68
2023/08/28 17:26:23;;;;;;;3.97;2.00;;;;;;;;;;12868383;23;19991;-67
2023/08/28 17:31:24;;;;;;;3.60;2.20;;;;;;;;;;12821483;23;20199;-65
2023/08/28 17:36:24;;;;;;;5.68;2.22;;;;;;;;;;12868336;23;20039;-65
2023/08/28 17:41:24;;;;;;;3.58;1.63;;;;;;;;;;12868370;23;20024;-67
2023/08/28 17:46:24;;;;;;;5.47;1.65;;;;;;;;;;12869521;23;20000;-75
2023/08/28 17:51:25;;;;;;;4.72;1.52;;;;;;;;;;12868982;23;19988;-67
2023/08/28 17:56:25;;;;;;;2.25;1.58;;;;;;;;;;12847866;23;20028;-67
2023/08/28 18:01:25;;;;;;;4.37;1.60;;;;;;;;;;12855084;23;20016;-67
2023/08/28 18:06:26;;;;;;;4.05;1.80;;;;;;;;;;12868412;23;20307;-67
2023/08/28 18:11:26;;;;;;;2.30;1.77;;;;;;;;;;12868769;23;20000;-67
2023/08/28 18:16:26;;;;;;;6.03;2.03;;;;;;;;;;12866080;23;20285;-68
2023/08/28 18:21:27;;;;;;;3.93;1.73;;;;;;;;;;12867894;23;19997;-76
2023/08/28 18:26:27;;;;;;;7.85;2.42;;;;;;;;;;12868247;23;20351;-80
2023/08/28 18:31:27;;;;;;;4.57;1.85;;;;;;;;;;12869353;23;20203;-77
2023/08/28 18:36:28;;;;;;;3.55;1.83;;;;;;;;;;12864922;23;20016;-68
2023/08/28 18:41:29;;;;;;;3.88;2.10;;;;;;;;;;12865815;23;20338;-68
2023/08/28 18:46:29;;;;;;;3.75;2.40;;;;;;;;;;12867257;23;20051;-68
2023/08/28 18:51:29;;;;;;;6.70;2.27;;;;;;;;;;12867388;23;20057;-68
2023/08/28 18:56:30;;;;;;;5.10;2.20;;;;;;;;;;12867102;23;19988;-69
2023/08/28 19:01:30;;;;;;;2.40;1.98;;;;;;;;;;12853514;23;20317;-69
2023/08/28 19:06:30;;;;;;;6.53;2.20;;;;;;;;;;12867146;23;20265;-79
2023/08/28 19:11:31;;;;;;;9.60;2.22;;;;;;;;;;12821260;23;20255;-77
2023/08/28 19:16:32;;;;;;;6.07;2.25;;;;;;;;;;12867167;23;20290;-77
2023/08/28 19:21:32;;;;;;;2.58;2.38;;;;;;;;;;12867906;23;19993;-77
2023/08/28 19:26:33;;;;;;;4.23;2.27;;;;;;;;;;12868037;23;20282;-80
2023/08/28 19:31:33;;;;;;;7.40;2.35;;;;;;;;;;12871584;23;20143;-79
2023/08/28 19:36:34;;;;;;;2.95;2.50;;;;;;;;;;12873665;23;20071;-66
2023/08/28 19:41:34;;;;;;;4.85;2.58;;;;;;;;;;12872897;23;20001;-80
2023/08/28 19:46:34;;;;;;;2.97;2.40;;;;;;;;;;12870476;23;20200;-81
2023/08/28 19:51:35;;;;;;;3.60;2.40;;;;;;;;;;12871028;23;20286;-80
2023/08/28 19:56:35;;;;;;;8.03;3.27;;;;;;;;;;12824015;23;20000;-78
2023/08/28 20:01:35;;;;;;;11.90;2.97;;;;;;;;;;12857688;23;20277;-65
2023/08/28 20:06:35;;;;;;;3.55;2.72;;;;;;;;;;12870263;23;20045;-65
2023/08/28 20:11:36;;;;;;;5.03;2.63;;;;;;;;;;12870316;23;20024;-65
2023/08/28 20:16:36;;;;;;;5.35;2.10;;;;;;;;;;12868887;23;20295;-64
2023/08/28 20:21:36;;;;;;;4.75;2.88;;;;;;;;;;12846563;23;20009;-66
2023/08/28 20:26:37;;;;;;;5.93;3.03;;;;;;;;;;12818938;23;20008;-65
2023/08/28 20:31:37;;;;;;;6.55;2.60;;;;;;;;;;12869142;23;20044;-78
2023/08/28 20:36:40;;;;;;;4.82;3.00;;;;;;;;;;12870254;23;20050;-73
2023/08/28 20:41:41;;;;;;;5.45;2.53;;;;;;;;;;12869027;23;20001;-77
2023/08/28 20:46:41;;;;;;;4.70;3.10;;;;;;;;;;12868269;23;20016;-78
2023/08/28 20:51:41;;;;;;;5.87;3.23;;;;;;;;;;12822663;23;19997;-84
2023/08/28 20:56:41;;;;;;;9.90;3.53;;;;;;;;;;12871772;23;19996;-83
2023/08/28 21:01:42;;;;;;;5.25;2.95;;;;;;;;;;12827885;23;20039;-68
2023/08/28 21:06:42;;;;;;;5.00;3.47;;;;;;;;;;12851780;23;20218;-72
2023/08/28 21:11:43;;;;;;;8.13;3.40;;;;;;;;;;12874720;23;20373;-67
2023/08/28 21:16:43;;;;;;;8.27;3.38;;;;;;;;;;12860490;23;20004;-67
2023/08/28 21:21:43;;;;;;;10.30;3.42;;;;;;;;;;12883208;23;19992;-67
2023/08/28 21:26:44;;;;;;;7.60;3.70;;;;;;;;;;12883929;23;20160;-67
2023/08/28 21:31:44;;;;;;;3.63;2.90;;;;;;;;;;12884096;23;20002;-67
2023/08/28 21:36:44;;;;;;;7.60;3.40;;;;;;;;;;12882373;23;20286;-67
2023/08/28 21:41:44;;;;;;;5.50;3.08;;;;;;;;;;12883781;23;20035;-67
2023/08/28 21:46:45;;;;;;;3.22;2.92;;;;;;;;;;12836302;23;20001;-67
2023/08/28 21:51:45;;;;;;;13.02;3.28;;;;;;;;;;12883146;23;20008;-67
2023/08/28 21:56:45;;;;;;;6.07;2.58;;;;;;;;;;12883735;23;20282;-67
2023/08/28 22:01:45;;;;;;;5.05;2.95;;;;;;;;;;12869172;23;20008;-67
2023/08/28 22:06:46;;;;;;;4.43;2.78;;;;;;;;;;12883732;23;20239;-67
2023/08/28 22:11:46;;;;;;;10.10;3.10;;;;;;;;;;12883392;23;20001;-68
2023/08/28 22:16:47;;;;;;;6.25;4.25;;;;;;;;;;12883672;23;19988;-67
2023/08/28 22:21:48;;;;;;;8.95;3.03;;;;;;;;;;12883591;23;20083;-67
2023/08/28 22:26:49;;;;;;;5.57;3.25;;;;;;;;;;12868733;23;19996;-67
2023/08/28 22:31:49;;;;;;;12.02;3.17;;;;;;;;;;12883274;23;20306;-67
2023/08/28 22:36:49;;;;;;;4.22;2.50;;;;;;;;;;12883463;23;19988;-67
2023/08/28 22:41:50;;;;;;;4.97;2.90;;;;;;;;;;12883202;23;20271;-67
2023/08/28 22:46:50;;;;;;;8.40;3.72;;;;;;;;;;12883256;23;20007;-67
2023/08/28 22:51:50;;;;;;;7.20;3.60;;;;;;;;;;12883159;23;20044;-67
2023/08/28 22:56:51;;;;;;;5.43;3.40;;;;;;;;;;12882936;23;20190;-67
2023/08/28 23:01:51;;;;;;;7.05;3.15;;;;;;;;;;12868483;23;20008;-67
2023/08/28 23:06:52;;;;;;;11.60;3.57;;;;;;;;;;12887287;23;20000;-67
2023/08/28 23:11:52;;;;;;;8.02;3.05;;;;;;;;;;12887118;23;20290;-67
2023/08/28 23:16:53;;;;;;;5.10;3.00;;;;;;;;;;12887756;23;19993;-67
2023/08/28 23:21:53;;;;;;;8.90;4.63;;;;;;;;;;12887127;23;20182;-67
2023/08/28 23:26:54;;;;;;;7.00;3.15;;;;;;;;;;12886920;23;19991;-67
2023/08/28 23:31:54;;;;;;;6.10;3.25;;;;;;;;;;12886598;23;20195;-67
2023/08/28 23:36:55;;;;;;;12.57;2.90;;;;;;;;;;12886737;23;19988;-67
2023/08/28 23:41:55;;;;;;;5.57;3.00;;;;;;;;;;12881853;23;20047;-67
2023/08/28 23:46:55;;;;;;;5.57;3.03;;;;;;;;;;12886273;23;19993;-68
2023/08/28 23:51:55;;;;;;;9.73;3.35;;;;;;;;;;12886092;23;20251;-67
2023/08/28 23:56:56;;;;;;;5.77;3.50;;;;;;;;;;12886299;23;20062;-67
